Time;durP1;ratioP1;P1;durP2;ratioP2;P2;SDS_P1;SDS_P2;PMS_P1;PMS_P2;Temp;Humidity;BMP_temperature;BMP_pressure;BME280_temperature;BME280_humidity;BME280_pressure;Samples;Min_cycle;Max_cycle;Signal;HPM_P1;HPM_P2
2023/06/08 00:00:50;;;;;;;9.65;4.28;;;20.20;64.00;;;;;;5113410;28;20043;-75
2023/06/08 00:03:19;;;;;;;9.05;4.82;;;20.10;64.00;;;;;;5112413;28;20032;-76
2023/06/08 00:05:49;;;;;;;8.43;4.40;;;20.00;64.20;;;;;;5113371;28;20023;-75
2023/06/08 00:08:15;;;;;;;10.20;4.25;;;20.10;64.60;;;;;;5112307;28;20012;-76
2023/06/08 00:10:43;;;;;;;10.05;4.35;;;20.00;64.60;;;;;;5113298;28;20073;-76
2023/06/08 00:13:09;;;;;;;7.57;3.90;;;20.00;64.60;;;;;;5112337;28;20467;-76
2023/06/08 00:15:34;;;;;;;9.45;4.60;;;20.00;65.60;;;;;;5117008;28;20088;-76
2023/06/08 00:18:01;;;;;;;8.10;4.38;;;20.00;64.70;;;;;;5116370;28;20092;-75
2023/06/08 00:20:26;;;;;;;9.23;4.15;;;19.90;64.90;;;;;;5117282;28;20076;-75
2023/06/08 00:22:52;;;;;;;9.40;4.45;;;19.90;64.90;;;;;;5117208;28;20048;-76
2023/06/08 00:25:18;;;;;;;11.25;4.72;;;19.80;65.10;;;;;;5116312;28;20039;-76
2023/06/08 00:27:43;;;;;;;9.50;5.35;;;19.80;65.30;;;;;;5117006;28;20059;-75
2023/06/08 00:30:10;;;;;;;10.52;4.47;;;19.70;65.60;;;;;;5116154;28;20069;-76
2023/06/08 00:32:35;;;;;;;10.25;4.47;;;19.70;65.80;;;;;;5115980;28;20043;-76
2023/06/08 00:35:01;;;;;;;11.95;4.53;;;19.70;65.70;;;;;;5115980;28;20040;-76
2023/06/08 00:37:27;;;;;;;8.48;4.53;;;19.70;65.80;;;;;;5099015;28;20554;-76
2023/06/08 00:39:52;;;;;;;7.68;4.28;;;19.60;65.90;;;;;;5116912;28;20016;-75
2023/06/08 00:42:18;;;;;;;10.30;4.60;;;19.60;66.10;;;;;;5116858;28;20032;-76
2023/06/08 00:44:43;;;;;;;11.68;5.30;;;19.60;66.20;;;;;;5116820;28;20066;-75
2023/06/08 00:47:09;;;;;;;10.48;5.25;;;19.50;66.20;;;;;;5098826;28;20028;-76
2023/06/08 00:49:35;;;;;;;10.15;4.50;;;19.50;66.40;;;;;;5116737;28;20028;-76
2023/06/08 00:52:01;;;;;;;10.65;5.00;;;19.50;66.40;;;;;;5115722;28;20103;-75
2023/06/08 00:54:30;;;;;;;10.23;4.90;;;19.50;66.50;;;;;;5116631;28;20030;-76
2023/06/08 00:57:00;;;;;;;10.57;5.10;;;19.40;66.40;;;;;;5116580;28;20024;-76
2023/06/08 00:59:28;;;;;;;12.48;4.85;;;19.30;66.50;;;;;;5115598;28;20027;-75
2023/06/08 01:01:57;;;;;;;10.57;5.03;;;19.30;66.80;;;;;;5116513;28;20028;-75
2023/06/08 01:04:23;;;;;;;10.35;4.85;;;19.30;67.00;;;;;;5116463;28;20042;-76
2023/06/08 01:06:53;;;;;;;7.60;4.85;;;19.20;67.20;;;;;;5115378;28;20035;-75
2023/06/08 01:09:26;;;;;;;7.53;4.85;;;19.20;67.20;;;;;;5116418;28;20012;-76
2023/06/08 01:12:22;;;;;;;7.75;4.22;;;19.20;67.20;;;;;;5116260;28;20028;-76
2023/06/08 01:14:53;;;;;;;9.57;4.68;;;19.10;67.10;;;;;;5115326;28;20016;-75
2023/06/08 01:17:24;;;;;;;10.15;5.00;;;19.10;67.40;;;;;;5116219;28;20024;-75
2023/06/08 01:20:12;;;;;;;9.70;5.00;;;19.10;67.80;;;;;;5116190;28;20095;-75
2023/06/08 01:23:09;;;;;;;12.63;5.05;;;19.00;68.20;;;;;;5115088;28;20028;-75
2023/06/08 01:25:38;;;;;;;11.63;5.57;;;18.90;68.40;;;;;;5114760;28;20028;-75
2023/06/08 01:28:12;;;;;;;12.23;4.97;;;18.90;68.50;;;;;;5116183;28;20039;-75
2023/06/08 01:30:43;;;;;;;11.77;5.15;;;18.80;68.80;;;;;;5115960;28;20058;-75
2023/06/08 01:33:12;;;;;;;10.95;4.95;;;18.80;68.90;;;;;;5115852;28;20038;-76
2023/06/08 01:35:38;;;;;;;11.55;5.65;;;18.80;68.90;;;;;;5115853;28;20016;-76
2023/06/08 01:38:14;;;;;;;12.65;5.15;;;18.80;68.90;;;;;;5115806;28;20024;-76
2023/06/08 01:40:43;;;;;;;10.45;4.78;;;18.80;69.00;;;;;;5115782;28;20024;-76
2023/06/08 01:43:12;;;;;;;11.27;5.75;;;18.80;68.90;;;;;;5115702;28;20076;-75
2023/06/08 01:45:45;;;;;;;12.52;5.30;;;18.80;69.00;;;;;;5115640;28;20046;-76
2023/06/08 01:48:12;;;;;;;11.60;5.05;;;18.80;69.00;;;;;;5114694;28;20490;-75
2023/06/08 01:50:39;;;;;;;9.18;5.40;;;18.80;69.20;;;;;;5115552;28;20043;-75
2023/06/08 01:53:05;;;;;;;13.68;5.65;;;18.70;69.20;;;;;;5115565;28;20016;-76
2023/06/08 01:55:31;;;;;;;10.75;5.10;;;18.80;69.20;;;;;;5115461;28;20021;-76
2023/06/08 01:57:57;;;;;;;13.02;5.55;;;18.80;69.20;;;;;;5114394;28;20024;-76
2023/06/08 02:00:23;;;;;;;14.35;5.65;;;18.70;69.30;;;;;;5114373;28;20032;-75
2023/06/08 02:02:48;;;;;;;10.82;5.10;;;18.70;69.40;;;;;;5115444;28;20028;-75
2023/06/08 02:05:15;;;;;;;10.90;6.03;;;18.70;69.50;;;;;;5114402;28;20084;-75
2023/06/08 02:07:42;;;;;;;13.20;5.63;;;18.70;69.50;;;;;;5114298;28;20035;-75
2023/06/08 02:10:09;;;;;;;10.63;5.07;;;18.60;69.70;;;;;;5115196;28;20024;-75
2023/06/08 02:12:35;;;;;;;12.20;6.38;;;18.50;69.80;;;;;;5114067;28;20020;-76
2023/06/08 02:15:01;;;;;;;10.18;5.55;;;18.50;69.90;;;;;;5115066;28;20050;-75
2023/06/08 02:17:33;;;;;;;11.05;5.78;;;18.50;70.00;;;;;;5115070;28;20024;-76
2023/06/08 02:20:06;;;;;;;15.02;5.60;;;18.50;70.90;;;;;;5115036;28;20016;-75
2023/06/08 02:22:32;;;;;;;12.95;5.53;;;18.50;70.20;;;;;;5114971;28;20032;-76
2023/06/08 02:24:58;;;;;;;12.80;5.57;;;18.40;70.30;;;;;;5114894;28;20020;-76
2023/06/08 02:27:24;;;;;;;12.60;5.57;;;18.30;70.40;;;;;;5114620;28;20075;-75
2023/06/08 02:29:50;;;;;;;12.00;5.82;;;18.30;70.50;;;;;;5113782;28;20024;-75
2023/06/08 02:32:16;;;;;;;13.40;6.50;;;18.30;70.40;;;;;;5114697;28;20047;-76
2023/06/08 02:34:41;;;;;;;10.05;5.82;;;18.30;70.40;;;;;;5114612;28;20080;-75
2023/06/08 02:37:07;;;;;;;13.48;6.13;;;18.30;70.50;;;;;;5113334;28;20031;-75
2023/06/08 02:39:33;;;;;;;14.05;5.78;;;18.30;70.50;;;;;;5114618;28;20024;-75
2023/06/08 02:41:58;;;;;;;14.23;5.80;;;18.20;70.40;;;;;;5113543;28;20035;-76
2023/06/08 02:44:24;;;;;;;11.32;5.95;;;18.20;70.50;;;;;;5114522;28;20032;-75
2023/06/08 02:46:50;;;;;;;9.88;5.93;;;18.20;70.70;;;;;;5114458;28;20028;-75
2023/06/08 02:49:16;;;;;;;11.27;5.35;;;18.10;70.80;;;;;;5113486;28;20024;-75
2023/06/08 02:51:42;;;;;;;13.23;6.93;;;18.10;70.70;;;;;;5114342;28;20079;-75
2023/06/08 02:54:07;;;;;;;12.30;6.30;;;18.10;70.80;;;;;;5113424;28;20017;-75
2023/06/08 02:56:33;;;;;;;12.10;5.90;;;18.10;70.80;;;;;;5114309;28;20044;-75
2023/06/08 02:58:59;;;;;;;13.32;5.97;;;18.10;70.70;;;;;;5113259;28;20509;-76
2023/06/08 03:01:30;;;;;;;10.77;6.20;;;18.00;70.80;;;;;;5096384;28;20031;-75
2023/06/08 03:03:56;;;;;;;11.00;5.47;;;18.00;71.00;;;;;;5114237;28;20035;-75
2023/06/08 03:06:21;;;;;;;9.65;5.63;;;18.00;71.10;;;;;;5113274;28;20387;-76
2023/06/08 03:08:53;;;;;;;13.75;6.13;;;17.90;71.10;;;;;;5113165;28;20028;-76
2023/06/08 03:11:22;;;;;;;13.05;6.30;;;17.90;71.20;;;;;;5113002;28;20028;-76
2023/06/08 03:13:48;;;;;;;10.95;5.55;;;17.90;71.20;;;;;;5113976;28;20016;-76
2023/06/08 03:16:14;;;;;;;12.05;6.20;;;17.80;71.50;;;;;;5113030;28;20032;-75
2023/06/08 03:18:41;;;;;;;14.93;6.18;;;17.80;71.50;;;;;;5095941;28;20077;-76
2023/06/08 03:21:12;;;;;;;11.07;6.18;;;17.80;71.50;;;;;;5113940;28;20040;-76
2023/06/08 03:23:38;;;;;;;12.48;6.63;;;17.80;71.50;;;;;;5113892;28;20031;-75
2023/06/08 03:26:04;;;;;;;15.60;6.00;;;17.70;71.50;;;;;;5113780;28;20039;-75
2023/06/08 03:28:30;;;;;;;14.10;6.28;;;17.70;71.70;;;;;;5112878;28;20028;-76
2023/06/08 03:30:56;;;;;;;13.90;5.88;;;17.70;72.60;;;;;;5113662;28;20055;-75
2023/06/08 03:33:21;;;;;;;10.52;5.97;;;17.70;71.80;;;;;;5113639;28;20024;-76
2023/06/08 03:35:48;;;;;;;15.23;6.38;;;17.60;72.80;;;;;;5113718;28;20028;-75
2023/06/08 03:38:14;;;;;;;13.55;6.07;;;17.50;72.00;;;;;;5112601;28;20042;-76
2023/06/08 03:40:40;;;;;;;13.60;6.45;;;17.60;72.20;;;;;;5113672;28;20020;-76
2023/06/08 03:43:05;;;;;;;12.15;5.93;;;17.50;72.40;;;;;;5112678;28;20056;-75
2023/06/08 03:45:31;;;;;;;12.07;6.20;;;17.50;72.40;;;;;;5113586;28;20039;-75
2023/06/08 03:47:56;;;;;;;12.48;6.40;;;17.40;72.50;;;;;;5113316;28;20035;-76
2023/06/08 03:50:22;;;;;;;10.52;5.80;;;17.50;72.70;;;;;;5112034;28;20032;-76
2023/06/08 03:52:48;;;;;;;13.55;6.00;;;17.40;72.50;;;;;;5113436;28;20047;-75
2023/06/08 03:55:13;;;;;;;12.60;6.30;;;17.40;72.50;;;;;;5113469;28;20032;-76
2023/06/08 03:57:40;;;;;;;12.32;6.00;;;17.40;72.50;;;;;;5113447;28;20032;-75
2023/06/08 04:00:13;;;;;;;16.42;6.50;;;17.40;72.60;;;;;;5112444;28;20020;-76
2023/06/08 04:02:39;;;;;;;10.57;5.93;;;17.40;72.60;;;;;;5112425;28;20031;-76
2023/06/08 04:05:08;;;;;;;11.15;6.20;;;17.40;72.50;;;;;;5113398;28;20032;-75
2023/06/08 04:07:36;;;;;;;10.10;6.38;;;17.40;72.70;;;;;;5095960;28;20024;-76
2023/06/08 04:10:03;;;;;;;15.05;6.22;;;17.40;72.80;;;;;;5112379;28;20407;-75
2023/06/08 04:12:28;;;;;;;14.60;6.57;;;17.40;72.70;;;;;;5095432;28;20028;-75
2023/06/08 04:14:54;;;;;;;15.80;5.80;;;17.40;72.90;;;;;;5095420;28;20060;-76
2023/06/08 04:17:20;;;;;;;16.58;6.63;;;17.40;72.90;;;;;;5112518;28;20080;-76
2023/06/08 04:19:45;;;;;;;10.55;6.30;;;17.50;72.90;;;;;;5113387;28;20601;-75
2023/06/08 04:22:11;;;;;;;16.60;6.57;;;17.50;73.00;;;;;;5112335;28;20092;-76
2023/06/08 04:24:38;;;;;;;14.13;6.28;;;17.40;73.00;;;;;;5112307;28;20102;-75
2023/06/08 04:27:06;;;;;;;13.75;6.70;;;17.40;73.00;;;;;;5112171;28;20033;-76
2023/06/08 04:29:32;;;;;;;13.18;6.68;;;17.50;73.20;;;;;;5113328;28;20079;-76
2023/06/08 04:31:58;;;;;;;12.38;5.80;;;17.50;73.40;;;;;;5112059;28;20028;-75
2023/06/08 04:34:23;;;;;;;12.90;6.65;;;17.50;73.10;;;;;;5112077;28;20054;-75
2023/06/08 04:36:49;;;;;;;12.38;5.82;;;17.50;73.10;;;;;;5112173;28;20055;-76
2023/06/08 04:39:15;;;;;;;11.88;6.18;;;17.50;73.00;;;;;;5095158;28;20035;-76
2023/06/08 04:41:44;;;;;;;13.60;6.15;;;17.60;72.90;;;;;;5113060;28;20020;-76
2023/06/08 04:44:13;;;;;;;13.25;6.35;;;17.50;72.90;;;;;;5113169;28;20025;-75
2023/06/08 04:46:41;;;;;;;14.23;6.63;;;17.50;73.80;;;;;;5112133;28;20020;-75
2023/06/08 04:49:08;;;;;;;11.93;6.10;;;17.50;73.80;;;;;;5112995;28;20020;-75
2023/06/08 04:51:39;;;;;;;13.43;6.03;;;17.50;72.80;;;;;;5112787;28;20032;-76
2023/06/08 04:54:05;;;;;;;16.15;6.22;;;17.50;72.70;;;;;;5111855;28;20050;-76
2023/06/08 04:56:33;;;;;;;15.23;6.88;;;17.50;72.80;;;;;;5112911;28;20024;-76
2023/06/08 04:59:02;;;;;;;13.80;7.00;;;17.50;72.90;;;;;;5112071;28;20371;-75
2023/06/08 05:01:28;;;;;;;13.55;6.60;;;17.50;73.10;;;;;;5115061;28;20057;-76
2023/06/08 05:03:53;;;;;;;14.82;6.55;;;17.50;73.00;;;;;;5115687;28;20371;-76
2023/06/08 05:06:19;;;;;;;13.27;6.97;;;17.50;73.10;;;;;;5115391;28;20036;-75
2023/06/08 05:08:45;;;;;;;14.02;6.75;;;17.50;73.00;;;;;;5115489;28;20032;-75
2023/06/08 05:11:12;;;;;;;14.65;6.45;;;17.50;73.10;;;;;;5115195;28;20024;-75
2023/06/08 05:13:37;;;;;;;11.63;6.78;;;17.50;73.10;;;;;;5116290;28;20027;-75
2023/06/08 05:16:03;;;;;;;12.10;6.38;;;17.50;73.00;;;;;;5115319;28;20032;-75
2023/06/08 05:18:29;;;;;;;13.43;6.25;;;17.50;73.20;;;;;;5115253;28;20024;-75
2023/06/08 05:20:55;;;;;;;12.73;7.13;;;17.50;73.20;;;;;;5116167;28;20027;-75
2023/06/08 05:23:20;;;;;;;18.30;7.45;;;17.60;73.10;;;;;;5116116;28;20528;-75
2023/06/08 05:25:46;;;;;;;15.30;7.20;;;17.60;73.00;;;;;;5115867;28;20032;-75
2023/06/08 05:28:12;;;;;;;11.60;6.68;;;17.60;73.00;;;;;;5116077;28;20056;-75
2023/06/08 05:30:37;;;;;;;12.32;6.80;;;17.60;72.80;;;;;;5115981;28;20028;-75
2023/06/08 05:33:03;;;;;;;13.68;7.32;;;17.50;72.90;;;;;;5114901;28;20032;-75
2023/06/08 05:35:29;;;;;;;13.00;7.18;;;17.50;73.00;;;;;;5097815;28;20035;-75
2023/06/08 05:37:55;;;;;;;13.57;7.38;;;17.50;73.00;;;;;;5115866;28;20024;-75
2023/06/08 05:40:21;;;;;;;13.90;7.20;;;17.50;73.20;;;;;;5114724;28;20035;-75
2023/06/08 05:42:47;;;;;;;17.27;8.23;;;17.50;73.20;;;;;;5115721;28;20029;-76
2023/06/08 05:45:12;;;;;;;12.63;7.03;;;17.50;73.30;;;;;;5114610;28;20028;-76
2023/06/08 05:47:38;;;;;;;12.75;7.38;;;17.40;73.30;;;;;;5115801;28;20028;-75
2023/06/08 05:50:04;;;;;;;18.33;7.43;;;17.40;73.40;;;;;;5115656;28;20035;-75
2023/06/08 05:52:30;;;;;;;14.48;7.60;;;17.40;73.60;;;;;;5114425;28;20036;-76
2023/06/08 05:54:57;;;;;;;15.98;7.47;;;17.40;73.80;;;;;;5115504;28;20039;-76
2023/06/08 05:57:23;;;;;;;17.65;7.60;;;17.50;73.80;;;;;;5114353;28;20024;-76
2023/06/08 05:59:48;;;;;;;16.60;7.05;;;17.50;73.90;;;;;;5115430;28;20051;-76
2023/06/08 06:02:14;;;;;;;16.90;7.65;;;17.60;73.70;;;;;;5115378;28;20031;-76
2023/06/08 06:04:40;;;;;;;15.52;6.95;;;17.60;73.50;;;;;;5115303;28;20100;-76
2023/06/08 06:07:06;;;;;;;17.23;7.43;;;17.70;73.50;;;;;;5114259;28;20073;-75
2023/06/08 06:09:33;;;;;;;19.52;8.35;;;17.60;73.60;;;;;;5114168;28;20095;-76
2023/06/08 06:11:59;;;;;;;15.50;7.75;;;17.60;73.70;;;;;;5114465;28;20449;-76
2023/06/08 06:14:25;;;;;;;16.38;8.43;;;17.60;73.70;;;;;;5115083;28;20088;-75
2023/06/08 06:16:50;;;;;;;17.60;8.10;;;17.60;73.80;;;;;;5114035;28;20077;-76
2023/06/08 06:19:16;;;;;;;16.38;7.97;;;17.70;73.90;;;;;;5115001;28;20490;-76
2023/06/08 06:21:41;;;;;;;15.13;7.65;;;17.80;73.90;;;;;;5114987;28;20054;-75
2023/06/08 06:24:07;;;;;;;20.67;7.10;;;17.70;73.80;;;;;;5114942;28;20028;-76
2023/06/08 06:26:34;;;;;;;17.23;8.75;;;17.80;73.80;;;;;;5113800;28;20086;-75
2023/06/08 06:28:59;;;;;;;18.15;8.23;;;17.90;73.90;;;;;;5114798;28;20028;-75
2023/06/08 06:31:25;;;;;;;17.52;7.82;;;17.90;73.80;;;;;;5113691;28;20032;-75
2023/06/08 06:33:51;;;;;;;16.88;7.95;;;18.00;73.60;;;;;;5113656;28;20017;-75
2023/06/08 06:36:16;;;;;;;17.48;7.30;;;18.00;73.60;;;;;;5113872;28;20083;-75
2023/06/08 06:38:42;;;;;;;19.23;8.27;;;18.10;73.40;;;;;;5114645;28;20035;-75
2023/06/08 06:41:08;;;;;;;16.55;8.60;;;18.10;73.20;;;;;;5114553;28;20020;-76
2023/06/08 06:43:33;;;;;;;17.30;8.45;;;18.10;73.40;;;;;;5096632;28;20024;-75
2023/06/08 06:45:59;;;;;;;17.45;8.93;;;18.10;73.40;;;;;;5114541;28;20024;-76
2023/06/08 06:48:25;;;;;;;18.60;8.48;;;18.20;73.40;;;;;;5113463;28;20031;-76
2023/06/08 06:50:50;;;;;;;16.98;8.43;;;18.20;73.40;;;;;;5113495;28;20020;-75
2023/06/08 06:53:16;;;;;;;15.70;8.40;;;18.20;73.10;;;;;;5114388;28;20057;-75
2023/06/08 06:55:41;;;;;;;20.65;9.32;;;18.20;73.90;;;;;;5114335;28;20039;-75
2023/06/08 06:58:08;;;;;;;18.58;8.80;;;18.20;73.60;;;;;;5114244;28;20020;-75
2023/06/08 07:00:37;;;;;;;15.43;7.82;;;18.30;73.50;;;;;;5114237;28;20024;-75
2023/06/08 07:03:09;;;;;;;17.23;8.50;;;18.30;73.50;;;;;;5114201;28;20024;-75
2023/06/08 07:05:35;;;;;;;14.60;7.80;;;18.40;73.60;;;;;;5114158;28;20032;-75
2023/06/08 07:08:01;;;;;;;18.08;8.57;;;18.40;73.60;;;;;;5113066;28;20034;-75
2023/06/08 07:10:27;;;;;;;14.85;7.90;;;18.50;73.60;;;;;;5114181;28;20039;-75
2023/06/08 07:12:53;;;;;;;17.88;9.30;;;18.50;73.60;;;;;;5113977;28;20110;-75
2023/06/08 07:15:18;;;;;;;16.55;8.18;;;18.60;73.40;;;;;;5112963;28;20020;-75
2023/06/08 07:17:46;;;;;;;15.68;8.27;;;18.60;73.50;;;;;;5113976;28;20032;-75
2023/06/08 07:20:12;;;;;;;19.52;8.57;;;18.60;73.60;;;;;;5113097;28;20079;-75
2023/06/08 07:22:38;;;;;;;15.93;8.27;;;18.60;73.70;;;;;;5113717;28;20035;-75
2023/06/08 07:25:04;;;;;;;17.27;8.98;;;18.70;73.70;;;;;;5113155;28;20056;-75
2023/06/08 07:27:30;;;;;;;16.33;8.80;;;18.70;73.40;;;;;;5113646;28;20056;-75
2023/06/08 07:29:56;;;;;;;16.15;8.07;;;18.70;73.00;;;;;;5112843;28;20043;-75
2023/06/08 07:32:21;;;;;;;19.13;8.80;;;18.80;73.00;;;;;;5112717;28;20040;-75
2023/06/08 07:34:47;;;;;;;19.20;9.38;;;18.80;73.10;;;;;;5112771;28;20028;-75
2023/06/08 07:37:13;;;;;;;16.83;8.13;;;18.80;73.00;;;;;;5113713;28;20028;-75
2023/06/08 07:39:39;;;;;;;16.80;8.75;;;18.90;73.10;;;;;;5113620;28;20035;-75
2023/06/08 07:42:05;;;;;;;18.58;8.68;;;18.90;73.10;;;;;;5113629;28;20387;-75
2023/06/08 07:44:31;;;;;;;19.40;9.55;;;19.00;73.20;;;;;;5113560;28;20162;-75
2023/06/08 07:46:57;;;;;;;18.08;8.77;;;19.10;73.10;;;;;;5113575;28;20028;-75
2023/06/08 07:49:23;;;;;;;19.88;8.95;;;19.20;73.10;;;;;;5113667;28;20050;-75
2023/06/08 07:51:50;;;;;;;17.60;8.57;;;19.20;73.00;;;;;;5112392;28;20087;-75
2023/06/08 07:54:19;;;;;;;16.10;8.48;;;19.30;72.90;;;;;;5112595;28;20111;-75
2023/06/08 07:56:46;;;;;;;17.35;8.25;;;19.40;72.90;;;;;;5112633;28;20024;-75
2023/06/08 07:59:12;;;;;;;16.70;8.00;;;19.50;73.00;;;;;;5112419;28;20020;-75
2023/06/08 08:01:37;;;;;;;15.70;8.27;;;19.60;72.70;;;;;;5113395;28;20032;-75
2023/06/08 08:04:03;;;;;;;16.45;8.38;;;19.60;72.40;;;;;;5095515;28;20060;-74
2023/06/08 08:06:29;;;;;;;14.93;8.93;;;19.60;72.30;;;;;;5113338;28;20036;-73
2023/06/08 08:08:54;;;;;;;15.23;8.30;;;19.70;72.40;;;;;;5112519;28;20040;-73
2023/06/08 08:11:20;;;;;;;17.05;8.60;;;19.70;72.10;;;;;;5113218;28;20071;-73
2023/06/08 08:13:46;;;;;;;14.95;8.30;;;19.80;72.20;;;;;;5095626;28;20040;-74
2023/06/08 08:16:13;;;;;;;18.02;8.63;;;19.80;71.90;;;;;;5095498;28;20099;-74
2023/06/08 08:18:38;;;;;;;18.67;8.48;;;19.90;71.60;;;;;;5112247;28;20112;-74
2023/06/08 08:21:05;;;;;;;13.75;8.20;;;19.90;71.40;;;;;;5112333;28;20020;-74
2023/06/08 08:23:30;;;;;;;16.88;8.45;;;20.00;71.70;;;;;;5113211;28;20078;-74
2023/06/08 08:25:56;;;;;;;15.50;8.35;;;20.00;72.40;;;;;;5112936;28;20056;-74
2023/06/08 08:28:21;;;;;;;15.63;8.35;;;20.00;71.50;;;;;;5095067;28;20040;-73
2023/06/08 08:30:47;;;;;;;14.93;8.60;;;19.90;70.60;;;;;;5113134;28;20024;-73
2023/06/08 08:33:13;;;;;;;18.15;8.85;;;19.90;70.90;;;;;;5112958;28;20036;-74
2023/06/08 08:35:39;;;;;;;16.30;8.05;;;19.90;71.00;;;;;;5114102;28;20016;-73
2023/06/08 08:38:05;;;;;;;15.57;8.70;;;20.00;71.30;;;;;;5117005;28;20024;-73
2023/06/08 08:40:30;;;;;;;14.57;8.32;;;20.10;71.70;;;;;;5116963;28;20043;-74
2023/06/08 08:43:08;;;;;;;14.35;8.10;;;20.20;71.50;;;;;;5098969;28;20032;-73
2023/06/08 08:45:36;;;;;;;16.65;8.63;;;20.30;71.70;;;;;;5116930;28;20028;-74
2023/06/08 08:48:02;;;;;;;16.13;8.02;;;20.40;71.30;;;;;;5115867;28;20032;-73
2023/06/08 08:50:33;;;;;;;19.65;9.18;;;20.60;71.20;;;;;;5115772;28;20107;-74
2023/06/08 08:53:00;;;;;;;21.45;9.20;;;20.60;70.30;;;;;;5115756;28;20020;-74
2023/06/08 08:55:33;;;;;;;13.25;8.02;;;20.60;69.90;;;;;;5098950;28;20047;-74
2023/06/08 08:58:00;;;;;;;15.38;7.75;;;20.60;69.20;;;;;;5116726;28;20020;-74
2023/06/08 09:00:27;;;;;;;14.13;7.97;;;20.60;68.90;;;;;;5115651;28;20024;-74
2023/06/08 09:02:53;;;;;;;16.13;8.45;;;20.60;68.60;;;;;;5115670;28;20099;-74
2023/06/08 09:05:19;;;;;;;13.43;8.10;;;20.40;68.20;;;;;;5115590;28;20028;-74
2023/06/08 09:07:45;;;;;;;19.13;8.07;;;20.30;68.90;;;;;;5116425;28;20020;-74
2023/06/08 09:10:22;;;;;;;16.20;8.13;;;20.30;68.80;;;;;;5116376;28;20028;-74
2023/06/08 09:12:50;;;;;;;13.80;7.68;;;20.30;69.00;;;;;;5116234;28;20024;-74
2023/06/08 09:15:31;;;;;;;17.60;8.23;;;20.30;69.00;;;;;;5116284;28;20048;-74
2023/06/08 09:18:02;;;;;;;17.02;7.78;;;20.20;68.30;;;;;;5115298;28;20088;-74
2023/06/08 09:20:31;;;;;;;13.23;7.78;;;20.20;68.30;;;;;;5116248;28;20024;-74
2023/06/08 09:22:57;;;;;;;12.95;7.85;;;20.10;68.20;;;;;;5116101;28;20028;-74
2023/06/08 09:25:38;;;;;;;15.48;7.75;;;20.10;68.40;;;;;;5116101;28;20024;-74
2023/06/08 09:28:35;;;;;;;16.63;7.72;;;20.10;68.20;;;;;;5114995;28;20078;-73
2023/06/08 09:31:08;;;;;;;16.15;7.90;;;20.10;68.20;;;;;;5099778;28;20099;-74
2023/06/08 09:33:34;;;;;;;14.55;7.88;;;20.10;69.40;;;;;;5115920;28;20111;-74
2023/06/08 09:36:01;;;;;;;11.18;7.30;;;20.20;68.70;;;;;;5115878;28;20016;-74
2023/06/08 09:38:28;;;;;;;13.00;7.43;;;20.30;68.20;;;;;;5115871;28;20026;-74
2023/06/08 09:41:17;;;;;;;14.88;7.32;;;20.30;68.00;;;;;;5114913;28;20024;-74
2023/06/08 09:43:47;;;;;;;16.17;7.55;;;20.40;67.90;;;;;;5097869;28;20028;-74
2023/06/08 09:46:31;;;;;;;13.18;7.78;;;20.40;67.80;;;;;;5113918;28;20032;-73
2023/06/08 09:48:56;;;;;;;13.70;7.90;;;20.50;68.00;;;;;;5115779;28;20024;-73
2023/06/08 09:51:23;;;;;;;14.38;7.68;;;20.50;68.20;;;;;;5115548;28;20028;-73
2023/06/08 09:53:57;;;;;;;14.75;8.20;;;20.60;69.10;;;;;;5114519;28;20028;-73
2023/06/08 09:56:27;;;;;;;16.40;7.63;;;20.70;67.90;;;;;;5114572;28;20024;-73
2023/06/08 09:58:56;;;;;;;13.93;7.35;;;20.80;68.40;;;;;;5115494;28;20044;-74
2023/06/08 10:01:40;;;;;;;13.55;7.72;;;20.90;68.10;;;;;;5115356;28;20027;-74
2023/06/08 10:04:33;;;;;;;15.05;7.90;;;21.00;67.40;;;;;;5115388;28;20027;-74
2023/06/08 10:07:10;;;;;;;12.80;6.95;;;21.10;67.20;;;;;;5114241;28;20031;-74
2023/06/08 10:09:41;;;;;;;12.25;7.18;;;21.20;67.10;;;;;;5115139;28;20046;-74
2023/06/08 10:12:07;;;;;;;14.93;7.35;;;21.30;66.70;;;;;;5115161;28;20028;-75
2023/06/08 10:14:35;;;;;;;13.73;7.53;;;21.30;66.40;;;;;;5097361;28;20475;-74
2023/06/08 10:17:02;;;;;;;14.32;8.25;;;21.30;66.40;;;;;;5097435;28;20020;-74
2023/06/08 10:19:30;;;;;;;11.68;7.13;;;21.50;66.70;;;;;;5115028;28;20020;-74
2023/06/08 10:21:57;;;;;;;12.02;6.85;;;21.60;67.10;;;;;;5115010;28;20028;-74
2023/06/08 10:24:25;;;;;;;12.13;7.38;;;21.80;66.70;;;;;;5114960;28;20043;-75
2023/06/08 10:26:50;;;;;;;14.90;7.20;;;21.90;66.30;;;;;;5114732;28;20051;-74
2023/06/08 10:29:17;;;;;;;12.38;6.57;;;22.00;65.80;;;;;;5113941;28;20024;-74
2023/06/08 10:31:47;;;;;;;11.15;7.00;;;22.10;65.90;;;;;;5096869;28;20027;-74
2023/06/08 10:34:14;;;;;;;14.10;7.68;;;22.20;65.90;;;;;;5114895;28;20021;-74
2023/06/08 10:36:42;;;;;;;13.95;6.97;;;22.40;65.80;;;;;;5114719;28;20387;-74
2023/06/08 10:39:17;;;;;;;14.38;6.70;;;22.50;65.90;;;;;;5114645;28;20016;-74
2023/06/08 10:41:53;;;;;;;8.77;5.70;;;22.60;66.20;;;;;;5113670;28;20028;-75
2023/06/08 10:44:31;;;;;;;8.75;5.15;;;22.80;65.70;;;;;;5114594;28;20049;-74
2023/06/08 10:47:05;;;;;;;11.25;5.85;;;23.00;65.20;;;;;;5114490;28;20111;-74
2023/06/08 10:49:37;;;;;;;10.27;5.90;;;23.10;64.40;;;;;;5114658;28;20038;-74
2023/06/08 10:52:06;;;;;;;13.63;6.25;;;23.20;63.30;;;;;;5113426;28;20032;-74
2023/06/08 10:54:58;;;;;;;9.05;5.82;;;23.30;63.20;;;;;;5114336;28;20024;-74
2023/06/08 10:57:34;;;;;;;11.20;6.32;;;23.40;63.80;;;;;;5114240;28;20017;-74
2023/06/08 10:59:59;;;;;;;9.75;6.00;;;23.50;62.80;;;;;;5114299;28;20020;-74
2023/06/08 11:02:28;;;;;;;10.60;6.38;;;23.50;63.30;;;;;;5114225;28;20056;-74
2023/06/08 11:04:56;;;;;;;10.07;6.53;;;23.60;63.00;;;;;;5114164;28;20017;-74
2023/06/08 11:07:25;;;;;;;12.38;6.65;;;23.70;63.10;;;;;;5114169;28;20441;-74
2023/06/08 11:09:51;;;;;;;11.73;6.45;;;23.80;62.40;;;;;;5113123;28;20035;-74
2023/06/08 11:12:17;;;;;;;11.70;6.10;;;23.80;63.00;;;;;;5113163;28;20036;-73
2023/06/08 11:14:42;;;;;;;10.32;7.13;;;23.90;62.50;;;;;;5113188;28;20024;-74
2023/06/08 11:17:08;;;;;;;9.40;6.18;;;24.00;62.10;;;;;;5112968;28;20039;-76
2023/06/08 11:19:34;;;;;;;10.90;6.15;;;24.00;62.10;;;;;;5096045;28;20024;-76
2023/06/08 11:22:00;;;;;;;11.57;7.20;;;24.10;62.70;;;;;;5096237;28;20509;-76
2023/06/08 11:24:30;;;;;;;10.82;6.53;;;24.20;61.80;;;;;;5113854;28;20020;-76
2023/06/08 11:26:59;;;;;;;11.68;6.40;;;24.30;61.60;;;;;;5113689;28;20051;-75
2023/06/08 11:29:28;;;;;;;13.18;6.88;;;24.40;62.20;;;;;;5112764;28;20032;-77
2023/06/08 11:31:55;;;;;;;13.98;7.30;;;24.50;61.00;;;;;;5112755;28;20020;-76
2023/06/08 11:34:22;;;;;;;10.32;6.03;;;24.50;60.80;;;;;;5112781;28;20024;-75
2023/06/08 11:36:49;;;;;;;8.82;6.13;;;24.50;61.10;;;;;;5113661;28;20024;-76
2023/06/08 11:39:15;;;;;;;11.15;6.03;;;24.60;61.40;;;;;;5112622;28;20024;-76
2023/06/08 11:41:46;;;;;;;11.40;6.65;;;24.70;61.50;;;;;;5112724;28;20035;-76
2023/06/08 11:44:13;;;;;;;11.40;7.15;;;24.70;60.20;;;;;;5113668;28;20024;-76
2023/06/08 11:46:39;;;;;;;11.32;6.45;;;24.80;59.90;;;;;;5113686;28;20058;-76
2023/06/08 11:49:11;;;;;;;10.63;5.53;;;24.90;59.70;;;;;;5112532;28;20083;-76
2023/06/08 11:51:44;;;;;;;;;;;25.00;60.10;;;;;;5113901;28;20594;-76
2023/06/08 11:54:09;;;;;;;11.25;6.72;;;25.10;59.80;;;;;;5113672;28;19971;-76
2023/06/08 11:56:35;;;;;;;9.90;6.28;;;25.00;59.30;;;;;;5112673;28;20092;-76
2023/06/08 11:59:03;;;;;;;11.48;6.75;;;25.10;58.70;;;;;;5113459;28;20021;-76
2023/06/08 12:01:30;;;;;;;12.82;6.75;;;25.10;58.10;;;;;;5113388;28;20049;-77
2023/06/08 12:03:56;;;;;;;12.73;7.07;;;25.10;58.40;;;;;;5113424;28;20035;-76
2023/06/08 12:06:26;;;;;;;9.82;6.30;;;25.10;60.30;;;;;;5113420;28;20095;-77
2023/06/08 12:08:55;;;;;;;9.40;6.28;;;25.20;59.80;;;;;;5112495;28;20395;-76
2023/06/08 12:11:21;;;;;;;10.02;5.70;;;25.40;59.10;;;;;;5115638;28;20028;-76
2023/06/08 12:13:47;;;;;;;9.25;5.65;;;25.50;58.80;;;;;;5117523;28;20024;-76
2023/06/08 12:16:13;;;;;;;7.05;5.45;;;25.50;59.00;;;;;;5116506;28;20027;-76
2023/06/08 12:18:40;;;;;;;8.32;5.47;;;25.60;59.10;;;;;;5117420;28;20080;-77
2023/06/08 12:21:08;;;;;;;9.65;6.32;;;25.60;59.60;;;;;;5117379;28;20025;-77
2023/06/08 12:23:33;;;;;;;9.02;5.70;;;25.80;58.30;;;;;;5117414;28;20031;-77
2023/06/08 12:26:00;;;;;;;7.53;5.50;;;25.80;59.10;;;;;;5116369;28;20088;-77
2023/06/08 12:28:25;;;;;;;8.05;5.28;;;25.90;58.20;;;;;;5117036;28;20059;-77
2023/06/08 12:30:52;;;;;;;7.63;5.40;;;26.00;57.90;;;;;;5116285;28;20024;-76
2023/06/08 12:33:19;;;;;;;9.63;5.60;;;26.00;57.20;;;;;;5115897;28;20028;-76
2023/06/08 12:35:49;;;;;;;8.40;6.18;;;26.10;57.10;;;;;;5117253;28;20028;-75
2023/06/08 12:38:16;;;;;;;8.60;6.13;;;26.10;56.60;;;;;;5117076;28;20028;-77
2023/06/08 12:40:47;;;;;;;9.10;5.30;;;26.10;57.00;;;;;;5117007;28;20028;-76